Time;durP1;ratioP1;P1;durP2;ratioP2;P2;SDS_P1;SDS_P2;PMS_P1;PMS_P2;Temp;Humidity;BMP_temperature;BMP_pressure;BME280_temperature;BME280_humidity;BME280_pressure;Samples;Min_cycle;Max_cycle;Signal;HPM_P1;HPM_P2
2023/04/29 00:00:50;;;;;;;23.38;11.82;;;;;;;;;;10274456;28;20334;-82
2023/04/29 00:05:51;;;;;;;18.00;12.07;;;;;;;;;;10260470;28;20208;-83
2023/04/29 00:10:52;;;;;;;22.92;12.48;;;;;;;;;;10255535;28;20315;-82
2023/04/29 00:15:53;;;;;;;19.23;11.23;;;;;;;;;;10258707;28;20313;-82
2023/04/29 00:20:55;;;;;;;18.08;12.68;;;;;;;;;;10260052;28;20225;-82
2023/04/29 00:25:56;;;;;;;15.00;10.77;;;;;;;;;;10259682;28;20264;-82
2023/04/29 00:30:57;;;;;;;21.70;14.55;;;;;;;;;;10262394;28;20245;-81
2023/04/29 00:35:58;;;;;;;23.13;16.10;;;;;;;;;;10262756;28;20249;-82
2023/04/29 00:40:59;;;;;;;21.77;13.77;;;;;;;;;;10264748;28;20217;-82
2023/04/29 00:46:00;;;;;;;16.00;10.68;;;;;;;;;;10264180;28;20222;-84
2023/04/29 00:51:02;;;;;;;18.27;11.18;;;;;;;;;;10270224;28;20404;-83
2023/04/29 00:56:06;;;;;;;17.40;10.55;;;;;;;;;;10271897;28;20228;-81
2023/04/29 01:01:07;;;;;;;16.58;10.82;;;;;;;;;;10271073;28;20256;-82
2023/04/29 01:06:11;;;;;;;17.85;12.07;;;;;;;;;;10278745;28;20268;-82
2023/04/29 01:11:13;;;;;;;20.85;12.35;;;;;;;;;;10284006;28;20257;-82
2023/04/29 01:16:30;;;;;;;16.85;10.82;;;;;;;;;;10276239;28;20293;-82
2023/04/29 01:21:45;;;;;;;12.85;8.73;;;;;;;;;;10267857;28;20320;-82
2023/04/29 01:26:51;;;;;;;18.52;10.20;;;;;;;;;;10264706;28;20882;-83
2023/04/29 01:32:18;;;;;;;13.60;9.27;;;;;;;;;;10280286;28;20225;-80
2023/04/29 01:37:27;;;;;;;17.17;9.65;;;;;;;;;;10260424;28;20221;-81
2023/04/29 01:42:33;;;;;;;18.60;10.75;;;;;;;;;;10276935;28;20712;-82
2023/04/29 01:47:37;;;;;;;21.67;11.23;;;;;;;;;;10283166;28;20759;-82
2023/04/29 01:52:38;;;;;;;22.08;12.38;;;;;;;;;;10263283;28;20233;-81
2023/04/29 01:57:39;;;;;;;15.50;10.88;;;;;;;;;;10264719;28;20218;-83
2023/04/29 02:02:59;;;;;;;22.33;12.68;;;;;;;;;;10266913;28;20252;-82
2023/04/29 02:08:06;;;;;;;17.67;11.63;;;;;;;;;;10277251;28;20244;-83
2023/04/29 02:13:12;;;;;;;16.02;10.23;;;;;;;;;;10280337;28;20225;-81
2023/04/29 02:18:14;;;;;;;17.15;9.43;;;;;;;;;;10270603;28;20333;-84
2023/04/29 02:23:16;;;;;;;17.02;9.38;;;;;;;;;;10279502;28;20217;-82
2023/04/29 02:28:17;;;;;;;14.35;9.35;;;;;;;;;;10278348;28;20241;-81
2023/04/29 02:33:18;;;;;;;13.13;8.32;;;;;;;;;;10277048;28;20267;-81
2023/04/29 02:38:19;;;;;;;11.55;7.70;;;;;;;;;;10231144;28;20217;-82
2023/04/29 02:43:20;;;;;;;13.07;9.00;;;;;;;;;;10264889;28;20275;-81
2023/04/29 02:48:21;;;;;;;14.05;8.75;;;;;;;;;;10260212;28;20217;-82
2023/04/29 02:53:22;;;;;;;13.73;8.93;;;;;;;;;;10272036;28;20225;-83
2023/04/29 02:58:24;;;;;;;14.05;8.65;;;;;;;;;;10237663;28;20221;-82
2023/04/29 03:03:25;;;;;;;12.75;8.68;;;;;;;;;;10243120;28;20226;-82
2023/04/29 03:08:27;;;;;;;14.25;9.32;;;;;;;;;;10251547;28;20220;-81
2023/04/29 03:13:28;;;;;;;12.93;8.68;;;;;;;;;;10259543;28;20308;-80
2023/04/29 03:18:29;;;;;;;16.17;8.95;;;;;;;;;;10272467;28;20695;-83
2023/04/29 03:23:30;;;;;;;18.17;10.15;;;;;;;;;;10261106;28;20277;-81
2023/04/29 03:28:31;;;;;;;17.08;9.75;;;;;;;;;;10272384;28;20269;-83
2023/04/29 03:33:32;;;;;;;26.15;12.65;;;;;;;;;;10276634;28;20245;-83
2023/04/29 03:38:34;;;;;;;31.70;13.43;;;;;;;;;;10273938;28;20213;-82
2023/04/29 03:43:35;;;;;;;26.05;12.13;;;;;;;;;;10274242;28;20413;-81
2023/04/29 03:48:36;;;;;;;23.00;11.57;;;;;;;;;;10261131;28;20267;-81
2023/04/29 03:53:38;;;;;;;26.02;11.60;;;;;;;;;;10262517;28;20218;-82
2023/04/29 03:58:40;;;;;;;25.45;11.88;;;;;;;;;;10245941;28;20288;-82
2023/04/29 04:03:42;;;;;;;26.95;12.35;;;;;;;;;;10262053;28;20218;-82
2023/04/29 04:08:43;;;;;;;24.98;12.15;;;;;;;;;;10283151;28;20214;-81
2023/04/29 04:13:54;;;;;;;26.52;11.55;;;;;;;;;;10284095;28;20214;-82
2023/04/29 04:18:56;;;;;;;21.98;10.73;;;;;;;;;;10269124;28;20654;-82
2023/04/29 04:23:57;;;;;;;25.85;10.75;;;;;;;;;;10281989;28;20225;-81
2023/04/29 04:28:59;;;;;;;15.52;9.10;;;;;;;;;;10308130;28;20256;-80
2023/04/29 04:34:08;;;;;;;19.88;9.98;;;;;;;;;;10280313;28;20220;-84
2023/04/29 04:39:10;;;;;;;17.42;10.02;;;;;;;;;;10306301;28;20745;-83
2023/04/29 04:44:12;;;;;;;19.02;10.65;;;;;;;;;;10299935;28;20241;-84
2023/04/29 04:49:26;;;;;;;19.52;11.98;;;;;;;;;;10299630;28;20222;-83
2023/04/29 04:54:27;;;;;;;20.50;11.20;;;;;;;;;;10289504;28;20224;-81
2023/04/29 04:59:38;;;;;;;20.52;10.70;;;;;;;;;;10276886;28;20279;-82
2023/04/29 05:04:40;;;;;;;20.15;10.63;;;;;;;;;;10269225;28;20221;-80
2023/04/29 05:09:41;;;;;;;13.77;8.38;;;;;;;;;;10238082;28;20222;-82
2023/04/29 05:14:42;;;;;;;10.15;6.97;;;;;;;;;;10231046;28;20218;-79
2023/04/29 05:19:44;;;;;;;8.10;6.13;;;;;;;;;;10206702;28;20257;-83
2023/04/29 05:24:47;;;;;;;6.85;6.05;;;;;;;;;;10232122;28;20224;-79
2023/04/29 05:29:48;;;;;;;8.07;5.38;;;;;;;;;;10211619;28;20222;-81
2023/04/29 05:34:50;;;;;;;8.30;5.72;;;;;;;;;;10215508;28;20217;-81
2023/04/29 05:39:51;;;;;;;6.22;5.40;;;;;;;;;;10199209;28;20274;-81
2023/04/29 05:44:52;;;;;;;8.10;5.72;;;;;;;;;;10233034;28;20228;-81
2023/04/29 05:49:53;;;;;;;7.78;5.50;;;;;;;;;;10248187;28;21045;-80
2023/04/29 05:54:55;;;;;;;7.03;4.65;;;;;;;;;;10242353;28;20209;-77
2023/04/29 05:59:58;;;;;;;6.53;4.57;;;;;;;;;;10259229;28;20922;-79
2023/04/29 06:05:00;;;;;;;7.35;5.07;;;;;;;;;;10229225;28;21049;-79
2023/04/29 06:10:15;;;;;;;5.55;4.57;;;;;;;;;;10229033;28;20217;-79
2023/04/29 06:15:19;;;;;;;5.15;4.10;;;;;;;;;;10261125;28;20221;-79
2023/04/29 06:20:20;;;;;;;6.63;3.97;;;;;;;;;;10230323;28;20722;-81
2023/04/29 06:25:24;;;;;;;4.53;4.13;;;;;;;;;;10251226;28;20214;-77
2023/04/29 06:30:26;;;;;;;4.63;4.22;;;;;;;;;;10252015;28;20228;-80
2023/04/29 06:35:30;;;;;;;6.93;4.40;;;;;;;;;;10262082;28;20317;-77
2023/04/29 06:40:54;;;;;;;5.03;4.53;;;;;;;;;;10241264;28;20214;-78
2023/04/29 06:46:01;;;;;;;3.65;3.33;;;;;;;;;;10240451;28;20360;-76
2023/04/29 06:51:09;;;;;;;4.47;3.72;;;;;;;;;;10239696;28;20608;-78
2023/04/29 06:56:11;;;;;;;4.55;4.25;;;;;;;;;;10263620;28;20229;-83
2023/04/29 07:01:12;;;;;;;4.80;4.18;;;;;;;;;;10248022;28;20241;-78
2023/04/29 07:06:13;;;;;;;5.03;4.47;;;;;;;;;;10263527;28;20252;-80
2023/04/29 07:11:15;;;;;;;7.60;4.57;;;;;;;;;;10247802;28;20232;-76
2023/04/29 07:16:20;;;;;;;5.40;5.00;;;;;;;;;;10248600;28;20306;-80
2023/04/29 07:21:21;;;;;;;4.72;4.32;;;;;;;;;;10251375;28;20228;-77
2023/04/29 07:26:23;;;;;;;4.72;4.32;;;;;;;;;;10266275;28;20788;-79
2023/04/29 07:31:24;;;;;;;4.55;4.15;;;;;;;;;;10254836;28;20240;-80
2023/04/29 07:36:27;;;;;;;5.20;4.57;;;;;;;;;;10266629;28;20292;-77
2023/04/29 07:41:28;;;;;;;5.68;5.10;;;;;;;;;;10259743;28;20733;-78
2023/04/29 07:46:32;;;;;;;5.43;4.93;;;;;;;;;;10262250;28;20231;-76
2023/04/29 07:51:33;;;;;;;5.22;4.75;;;;;;;;;;10258199;28;20225;-77
2023/04/29 07:56:35;;;;;;;6.05;5.45;;;;;;;;;;10261502;28;20336;-78
2023/04/29 08:01:37;;;;;;;8.13;5.88;;;;;;;;;;10246319;28;20241;-78
2023/04/29 08:06:40;;;;;;;7.13;5.75;;;;;;;;;;10243198;28;20308;-80
2023/04/29 08:11:44;;;;;;;11.63;7.45;;;;;;;;;;10258870;28;20229;-81
2023/04/29 08:16:47;;;;;;;11.02;7.82;;;;;;;;;;10264283;28;20222;-79
2023/04/29 08:21:48;;;;;;;11.70;7.43;;;;;;;;;;10251661;28;20230;-79
2023/04/29 08:26:50;;;;;;;12.57;8.75;;;;;;;;;;10246238;28;20778;-78
2023/04/29 08:31:50;;;;;;;15.75;10.23;;;;;;;;;;10250863;28;20225;-78
2023/04/29 08:36:51;;;;;;;16.15;10.77;;;;;;;;;;10252622;28;20221;-81
2023/04/29 08:41:54;;;;;;;18.48;11.52;;;;;;;;;;10253342;28;20635;-80
2023/04/29 08:46:55;;;;;;;18.42;11.30;;;;;;;;;;10252670;28;20220;-78
2023/04/29 08:51:56;;;;;;;16.92;12.20;;;;;;;;;;10258589;28;20804;-78
2023/04/29 08:56:58;;;;;;;14.45;11.30;;;;;;;;;;10239540;28;20245;-80
2023/04/29 09:01:59;;;;;;;14.05;11.35;;;;;;;;;;10260443;28;20843;-81
2023/04/29 09:07:01;;;;;;;15.57;11.70;;;;;;;;;;10261344;28;20225;-80
2023/04/29 09:12:02;;;;;;;14.80;11.55;;;;;;;;;;10275669;28;20676;-79
2023/04/29 09:17:03;;;;;;;17.25;11.93;;;;;;;;;;10247940;28;20229;-77
2023/04/29 09:22:07;;;;;;;21.85;12.75;;;;;;;;;;10256867;28;20222;-78
2023/04/29 09:27:08;;;;;;;16.67;11.77;;;;;;;;;;10266675;28;20221;-78
2023/04/29 09:32:19;;;;;;;15.32;11.20;;;;;;;;;;10253369;28;20606;-80
2023/04/29 09:37:26;;;;;;;15.38;10.60;;;;;;;;;;10254343;28;20221;-80
2023/04/29 09:42:28;;;;;;;12.90;10.10;;;;;;;;;;10272086;28;20220;-79
2023/04/29 09:47:31;;;;;;;10.60;8.85;;;;;;;;;;10254679;28;20225;-79
2023/04/29 09:52:41;;;;;;;16.08;9.55;;;;;;;;;;10256412;28;20953;-77
2023/04/29 09:57:43;;;;;;;10.25;9.23;;;;;;;;;;10249042;28;20247;-79
2023/04/29 10:02:48;;;;;;;9.45;8.35;;;;;;;;;;10255148;28;20225;-79
2023/04/29 10:07:50;;;;;;;9.27;8.15;;;;;;;;;;10271949;28;20213;-79
2023/04/29 10:12:53;;;;;;;9.23;7.72;;;;;;;;;;10272972;28;20234;-78
2023/04/29 10:17:57;;;;;;;9.65;7.95;;;;;;;;;;10254912;28;21031;-79
2023/04/29 10:22:59;;;;;;;8.77;7.97;;;;;;;;;;10255680;28;20225;-79
2023/04/29 10:28:03;;;;;;;9.23;7.70;;;;;;;;;;10255260;28;20669;-79
2023/04/29 10:33:04;;;;;;;8.00;7.20;;;;;;;;;;10254028;28;20225;-79
2023/04/29 10:38:09;;;;;;;8.65;7.75;;;;;;;;;;10237191;28;20304;-77
2023/04/29 10:43:10;;;;;;;8.02;7.38;;;;;;;;;;10259374;28;20680;-80
2023/04/29 10:48:12;;;;;;;8.20;7.43;;;;;;;;;;10267496;28;20861;-79
2023/04/29 10:53:13;;;;;;;8.85;7.38;;;;;;;;;;10252613;28;20292;-80
2023/04/29 10:58:34;;;;;;;8.95;7.53;;;;;;;;;;10270685;28;20244;-78
2023/04/29 11:03:58;;;;;;;8.25;7.50;;;;;;;;;;10247613;28;20228;-80
2023/04/29 11:09:00;;;;;;;7.47;6.20;;;;;;;;;;10251787;28;20240;-79
2023/04/29 11:14:02;;;;;;;10.15;6.90;;;;;;;;;;10268892;28;20228;-79
2023/04/29 11:19:05;;;;;;;8.45;7.13;;;;;;;;;;10254522;28;20221;-80
2023/04/29 11:24:06;;;;;;;6.68;6.15;;;;;;;;;;10254092;28;20236;-80
2023/04/29 11:29:09;;;;;;;7.30;6.20;;;;;;;;;;10256511;28;20232;-81
2023/04/29 11:34:10;;;;;;;5.05;4.38;;;;;;;;;;10267929;28;20289;-81
2023/04/29 11:39:11;;;;;;;4.63;4.25;;;;;;;;;;10253938;28;20242;-78
2023/04/29 11:44:13;;;;;;;4.50;4.18;;;;;;;;;;10269217;28;20680;-80
2023/04/29 11:49:14;;;;;;;4.10;3.90;;;;;;;;;;10269547;28;20252;-80
2023/04/29 11:54:15;;;;;;;4.20;3.90;;;;;;;;;;10232080;28;20260;-80
2023/04/29 11:59:17;;;;;;;3.55;3.35;;;;;;;;;;10236991;28;20308;-79
2023/04/29 12:04:18;;;;;;;3.95;3.47;;;;;;;;;;10250594;28;20228;-80
2023/04/29 12:09:20;;;;;;;4.60;3.85;;;;;;;;;;10216004;28;20224;-82
2023/04/29 12:14:21;;;;;;;3.80;3.60;;;;;;;;;;10244957;28;20691;-79
2023/04/29 12:19:22;;;;;;;4.78;4.32;;;;;;;;;;10259541;28;20232;-82
2023/04/29 12:24:24;;;;;;;3.85;3.60;;;;;;;;;;10250395;28;20309;-77
2023/04/29 12:29:25;;;;;;;3.65;3.45;;;;;;;;;;10247161;28;21090;-80
2023/04/29 12:34:30;;;;;;;4.20;3.92;;;;;;;;;;10254061;28;20221;-80
2023/04/29 12:39:34;;;;;;;3.97;3.67;;;;;;;;;;10266076;28;20217;-77
2023/04/29 12:44:39;;;;;;;4.35;4.15;;;;;;;;;;10250516;28;20222;-79
2023/04/29 12:49:44;;;;;;;4.07;3.78;;;;;;;;;;10254019;28;20225;-78
2023/04/29 12:54:45;;;;;;;4.18;3.72;;;;;;;;;;10255607;28;20609;-81
2023/04/29 12:59:46;;;;;;;3.20;3.00;;;;;;;;;;10253173;28;20226;-79
2023/04/29 13:04:47;;;;;;;3.50;3.30;;;;;;;;;;10250712;28;20225;-81
2023/04/29 13:09:49;;;;;;;4.35;3.80;;;;;;;;;;10248030;28;20781;-81
2023/04/29 13:14:50;;;;;;;3.60;3.40;;;;;;;;;;10245702;28;20226;-80
2023/04/29 13:19:51;;;;;;;3.25;3.15;;;;;;;;;;10250039;28;20222;-79
2023/04/29 13:24:52;;;;;;;2.70;2.60;;;;;;;;;;10262635;28;20244;-78
2023/04/29 13:29:53;;;;;;;3.80;3.60;;;;;;;;;;10254653;28;20225;-80
2023/04/29 13:34:54;;;;;;;4.43;2.97;;;;;;;;;;10251077;28;20222;-78
2023/04/29 13:39:55;;;;;;;2.97;2.78;;;;;;;;;;10252539;28;20224;-79
2023/04/29 13:44:56;;;;;;;3.17;2.88;;;;;;;;;;10253044;28;20255;-78
2023/04/29 13:49:57;;;;;;;3.35;2.80;;;;;;;;;;10267423;28;20300;-80
2023/04/29 13:54:58;;;;;;;2.97;2.78;;;;;;;;;;10258216;28;20246;-76
2023/04/29 13:59:59;;;;;;;5.47;3.40;;;;;;;;;;10248363;28;20236;-79
2023/04/29 14:05:00;;;;;;;3.35;2.40;;;;;;;;;;10250863;28;20850;-79
2023/04/29 14:10:01;;;;;;;2.92;2.83;;;;;;;;;;10250045;28;20236;-78
2023/04/29 14:15:02;;;;;;;2.75;2.55;;;;;;;;;;10248430;28;20292;-77
2023/04/29 14:20:04;;;;;;;4.65;4.25;;;;;;;;;;10243979;28;20251;-79
2023/04/29 14:25:05;;;;;;;2.88;2.63;;;;;;;;;;10248019;28;20204;-79
2023/04/29 14:30:07;;;;;;;4.82;4.38;;;;;;;;;;10245890;28;20756;-76
2023/04/29 14:35:09;;;;;;;10.88;9.77;;;;;;;;;;10234290;28;20934;-79
2023/04/29 14:40:10;;;;;;;24.75;17.25;;;;;;;;;;10244287;28;20707;-80
2023/04/29 14:45:11;;;;;;;12.05;8.30;;;;;;;;;;10252349;28;20296;-79
2023/04/29 14:50:12;;;;;;;14.25;7.85;;;;;;;;;;10258691;28;20218;-77
2023/04/29 14:55:13;;;;;;;7.93;5.63;;;;;;;;;;10234964;28;20665;-80
2023/04/29 15:00:14;;;;;;;12.65;9.18;;;;;;;;;;10265106;28;20245;-80
2023/04/29 15:05:16;;;;;;;11.70;6.72;;;;;;;;;;10262146;28;20210;-77
2023/04/29 15:10:17;;;;;;;5.72;5.15;;;;;;;;;;10240851;28;20212;-79
2023/04/29 15:15:18;;;;;;;9.75;7.07;;;;;;;;;;10239805;28;20737;-79
2023/04/29 15:20:20;;;;;;;6.53;5.93;;;;;;;;;;10245385;28;20202;-80
2023/04/29 15:25:21;;;;;;;10.13;8.25;;;;;;;;;;10251671;28;20201;-80
2023/04/29 15:30:22;;;;;;;11.52;9.65;;;;;;;;;;10241468;28;20214;-78
2023/04/29 15:35:23;;;;;;;9.23;7.40;;;;;;;;;;10246586;28;20197;-83
2023/04/29 15:40:24;;;;;;;15.02;9.88;;;;;;;;;;10256038;28;20236;-80
2023/04/29 15:45:25;;;;;;;4.95;4.07;;;;;;;;;;10254371;28;20317;-80
2023/04/29 15:50:27;;;;;;;4.68;4.25;;;;;;;;;;10245306;28;20228;-79
2023/04/29 15:55:28;;;;;;;4.75;4.45;;;;;;;;;;10234349;28;20246;-79
2023/04/29 16:00:29;;;;;;;3.50;3.38;;;;;;;;;;10283178;28;20248;-81
2023/04/29 16:05:30;;;;;;;16.10;10.05;;;;;;;;;;10285475;28;20340;-81
2023/04/29 16:10:31;;;;;;;8.82;8.02;;;;;;;;;;10271510;28;20217;-81
2023/04/29 16:15:32;;;;;;;5.70;3.50;;;;;;;;;;10256756;28;20232;-78
2023/04/29 16:20:33;;;;;;;4.25;4.05;;;;;;;;;;10241721;28;20323;-80
2023/04/29 16:25:34;;;;;;;11.90;7.65;;;;;;;;;;10241283;28;20920;-77
2023/04/29 16:30:35;;;;;;;5.43;3.20;;;;;;;;;;10240685;28;20221;-78
2023/04/29 16:35:36;;;;;;;3.90;3.60;;;;;;;;;;10254682;28;20856;-77
2023/04/29 16:40:37;;;;;;;3.33;3.03;;;;;;;;;;10238955;28;20229;-78
2023/04/29 16:45:38;;;;;;;4.72;4.20;;;;;;;;;;10253375;28;20229;-78
2023/04/29 16:50:39;;;;;;;3.20;3.00;;;;;;;;;;10242500;28;20254;-79
2023/04/29 16:55:40;;;;;;;3.28;2.95;;;;;;;;;;10252039;28;20229;-78
2023/04/29 17:00:41;;;;;;;3.58;2.72;;;;;;;;;;10222143;28;20252;-77
2023/04/29 17:05:42;;;;;;;3.28;3.15;;;;;;;;;;10227584;28;20307;-76
2023/04/29 17:10:43;;;;;;;4.43;2.83;;;;;;;;;;10252277;28;20225;-78
2023/04/29 17:15:44;;;;;;;3.88;3.25;;;;;;;;;;10246961;28;20225;-79
2023/04/29 17:20:46;;;;;;;2.80;2.70;;;;;;;;;;10266675;28;20239;-80
2023/04/29 17:25:47;;;;;;;3.22;2.75;;;;;;;;;;10269213;28;20224;-78
2023/04/29 17:30:48;;;;;;;2.83;2.50;;;;;;;;;;10271408;28;20225;-78
2023/04/29 17:35:49;;;;;;;2.70;2.50;;;;;;;;;;10250168;28;20216;-81
2023/04/29 17:40:50;;;;;;;6.00;2.65;;;;;;;;;;10252354;28;20213;-81
2023/04/29 17:45:51;;;;;;;3.28;2.85;;;;;;;;;;10253752;28;20224;-81
2023/04/29 17:50:53;;;;;;;2.85;2.58;;;;;;;;;;10248562;28;20221;-80
2023/04/29 17:55:54;;;;;;;2.45;2.35;;;;;;;;;;10253796;28;20294;-80
2023/04/29 18:00:55;;;;;;;2.55;2.42;;;;;;;;;;10248595;28;20230;-81
2023/04/29 18:05:56;;;;;;;2.60;2.40;;;;;;;;;;10253381;28;20990;-81
2023/04/29 18:10:57;;;;;;;2.35;2.10;;;;;;;;;;10260726;28;20236;-79
2023/04/29 18:15:59;;;;;;;2.08;2.08;;;;;;;;;;10268270;28;20455;-79
2023/04/29 18:21:00;;;;;;;3.20;2.47;;;;;;;;;;10253183;28;20241;-79
2023/04/29 18:26:01;;;;;;;2.63;2.53;;;;;;;;;;10247345;28;20344;-80
2023/04/29 18:31:02;;;;;;;2.60;2.47;;;;;;;;;;10246300;28;21021;-80
2023/04/29 18:36:03;;;;;;;2.47;2.28;;;;;;;;;;10240703;28;20232;-80
2023/04/29 18:41:05;;;;;;;2.55;2.13;;;;;;;;;;10243171;28;20274;-82
2023/04/29 18:46:06;;;;;;;4.25;2.35;;;;;;;;;;10245562;28;20602;-81
2023/04/29 18:51:07;;;;;;;3.00;2.45;;;;;;;;;;10234529;28;20221;-84
2023/04/29 18:56:09;;;;;;;2.60;2.40;;;;;;;;;;10246443;28;20284;-82
2023/04/29 19:01:10;;;;;;;2.75;2.75;;;;;;;;;;10246495;28;20610;-82
2023/04/29 19:06:11;;;;;;;3.30;3.00;;;;;;;;;;10247132;28;20300;-81
2023/04/29 19:11:12;;;;;;;2.75;2.55;;;;;;;;;;10245982;28;20232;-81
2023/04/29 19:16:13;;;;;;;2.22;2.13;;;;;;;;;;10245759;28;20217;-82
2023/04/29 19:21:14;;;;;;;4.00;2.60;;;;;;;;;;10244329;28;20743;-83
2023/04/29 19:26:15;;;;;;;2.75;2.58;;;;;;;;;;10250630;28;20796;-83
2023/04/29 19:31:16;;;;;;;2.78;2.60;;;;;;;;;;10244112;28;20604;-83
2023/04/29 19:36:17;;;;;;;2.85;2.75;;;;;;;;;;10257346;28;20224;-83
2023/04/29 19:41:19;;;;;;;5.28;2.88;;;;;;;;;;10259203;28;20854;-82
2023/04/29 19:46:20;;;;;;;2.92;2.72;;;;;;;;;;10243404;28;20228;-82
2023/04/29 19:51:21;;;;;;;2.85;2.75;;;;;;;;;;10259054;28;20225;-81
2023/04/29 19:56:22;;;;;;;3.03;2.83;;;;;;;;;;10241988;28;21142;-81
2023/04/29 20:01:24;;;;;;;3.67;3.38;;;;;;;;;;10240821;28;20228;-81
2023/04/29 20:06:25;;;;;;;3.95;3.25;;;;;;;;;;10252242;28;20217;-81
2023/04/29 20:11:26;;;;;;;2.92;2.60;;;;;;;;;;10249308;28;20291;-80
2023/04/29 20:16:28;;;;;;;3.30;3.10;;;;;;;;;;10251850;28;20222;-81
2023/04/29 20:21:29;;;;;;;1.80;1.80;;;;;;;;;;10246568;28;21431;-79
2023/04/29 20:26:32;;;;;;;1.90;1.90;;;;;;;;;;10245473;28;20222;-81
2023/04/29 20:31:33;;;;;;;2.35;1.48;;;;;;;;;;10241581;28;20317;-80
2023/04/29 20:36:34;;;;;;;1.33;1.23;;;;;;;;;;10239446;28;20232;-80
2023/04/29 20:41:35;;;;;;;0.90;0.90;;;;;;;;;;10237548;28;21123;-80
2023/04/29 20:46:36;;;;;;;2.15;0.80;;;;;;;;;;10235725;28;20221;-79
2023/04/29 20:51:37;;;;;;;0.80;0.80;;;;;;;;;;10259955;28;20226;-81
2023/04/29 20:56:38;;;;;;;0.77;0.77;;;;;;;;;;10245899;28;20210;-80
2023/04/29 21:01:39;;;;;;;0.60;0.60;;;;;;;;;;10244879;28;20249;-80
2023/04/29 21:06:40;;;;;;;0.70;0.70;;;;;;;;;;10245959;28;20217;-80
2023/04/29 21:11:41;;;;;;;0.60;0.60;;;;;;;;;;10263202;28;20221;-81
2023/04/29 21:16:42;;;;;;;1.05;0.68;;;;;;;;;;10246046;28;20974;-81
2023/04/29 21:21:43;;;;;;;0.70;0.70;;;;;;;;;;10255883;28;20217;-80
2023/04/29 21:26:44;;;;;;;5.68;0.90;;;;;;;;;;10252869;28;20269;-77
2023/04/29 21:31:45;;;;;;;0.90;0.90;;;;;;;;;;10255254;28;20233;-77
2023/04/29 21:36:46;;;;;;;0.93;0.93;;;;;;;;;;10255012;28;21644;-76
2023/04/29 21:41:47;;;;;;;0.73;0.73;;;;;;;;;;10267901;28;20225;-79
2023/04/29 21:46:48;;;;;;;2.03;0.90;;;;;;;;;;10256220;28;20297;-79
2023/04/29 21:51:50;;;;;;;4.05;0.70;;;;;;;;;;10259071;28;20236;-78
2023/04/29 21:56:51;;;;;;;1.33;0.82;;;;;;;;;;10255850;28;20658;-79
2023/04/29 22:01:58;;;;;;;0.93;0.93;;;;;;;;;;10254540;28;20232;-80
2023/04/29 22:06:59;;;;;;;1.10;1.00;;;;;;;;;;10255056;28;20293;-77
2023/04/29 22:12:01;;;;;;;0.80;0.80;;;;;;;;;;10258647;28;20229;-78
2023/04/29 22:17:03;;;;;;;1.05;0.90;;;;;;;;;;10258802;28;20221;-79
2023/04/29 22:22:04;;;;;;;0.75;0.65;;;;;;;;;;10255885;28;20218;-78
2023/04/29 22:27:05;;;;;;;0.93;0.80;;;;;;;;;;10258105;28;20320;-80
2023/04/29 22:32:06;;;;;;;1.50;0.85;;;;;;;;;;10258622;28;20287;-77
2023/04/29 22:37:07;;;;;;;1.75;1.17;;;;;;;;;;10264264;28;20213;-81
2023/04/29 22:42:08;;;;;;;1.77;1.55;;;;;;;;;;10275688;28;20214;-79
2023/04/29 22:47:09;;;;;;;1.25;1.25;;;;;;;;;;10260463;28;20217;-79
2023/04/29 22:52:10;;;;;;;1.38;1.23;;;;;;;;;;10272389;28;20646;-82
2023/04/29 22:57:11;;;;;;;1.58;1.58;;;;;;;;;;10266178;28;20225;-78
2023/04/29 23:02:14;;;;;;;2.70;1.13;;;;;;;;;;10254314;28;20218;-80
2023/04/29 23:07:17;;;;;;;1.92;1.30;;;;;;;;;;10266075;28;20304;-79
2023/04/29 23:12:18;;;;;;;1.70;1.27;;;;;;;;;;10259565;28;20304;-80
2023/04/29 23:17:20;;;;;;;0.93;0.93;;;;;;;;;;10258062;28;20221;-80
2023/04/29 23:22:20;;;;;;;1.88;1.00;;;;;;;;;;10256552;28;20222;-80
2023/04/29 23:27:21;;;;;;;1.10;1.10;;;;;;;;;;10236470;28;20687;-78
2023/04/29 23:32:23;;;;;;;1.60;1.23;;;;;;;;;;10256605;28;20456;-80
2023/04/29 23:37:25;;;;;;;1.10;1.10;;;;;;;;;;10251090;28;21128;-78
2023/04/29 23:42:26;;;;;;;1.52;1.15;;;;;;;;;;10248740;28;20239;-78
2023/04/29 23:47:27;;;;;;;2.05;1.27;;;;;;;;;;10248163;28;20214;-78
2023/04/29 23:52:28;;;;;;;1.13;1.00;;;;;;;;;;10250508;28;22042;-78
2023/04/29 23:57:29;;;;;;;2.22;2.13;;;;;;;;;;10255930;28;20221;-79
